createdAt,value
2022-08-28T00:00:59.480Z,88.70
2022-08-28T00:03:26.344Z,89.27
2022-08-28T00:05:53.551Z,87.78
2022-08-28T00:08:20.933Z,90.90
2022-08-28T00:10:48.319Z,95.82
2022-08-28T00:13:18.839Z,94.80
2022-08-28T00:15:48.749Z,90.65
2022-08-28T00:18:16.582Z,101.35
2022-08-28T00:20:44.374Z,81.93
2022-08-28T00:23:11.219Z,105.57
2022-08-28T00:25:38.298Z,98.72
2022-08-28T00:28:08.719Z,98.15
2022-08-28T00:30:41.509Z,100.25
2022-08-28T00:33:13.676Z,105.90
2022-08-28T00:35:42.191Z,86.13
2022-08-28T00:38:10.889Z,101.50
2022-08-28T00:40:39.496Z,101.53
2022-08-28T00:43:08.834Z,80.57
2022-08-28T00:45:39.806Z,78.25
2022-08-28T00:48:07.689Z,68.45
2022-08-28T00:51:00.589Z,67.75
2022-08-28T00:53:32.725Z,79.82
2022-08-28T00:56:09.489Z,69.18
2022-08-28T00:58:42.006Z,82.20
2022-08-28T01:01:09.183Z,83.97
2022-08-28T01:03:36.635Z,90.00
2022-08-28T01:06:04.399Z,87.97
2022-08-28T01:08:31.294Z,79.97
2022-08-28T01:11:01.495Z,82.05
2022-08-28T01:13:29.499Z,82.45
2022-08-28T01:15:58.076Z,83.43
2022-08-28T01:18:27.545Z,105.90
2022-08-28T01:21:20.522Z,81.22
2022-08-28T01:23:51.486Z,90.33
2022-08-28T01:26:19.832Z,84.40
2022-08-28T01:28:47.439Z,78.73
2022-08-28T01:31:15.746Z,74.87
2022-08-28T01:33:43.746Z,75.63
2022-08-28T01:36:12.506Z,77.40
2022-08-28T01:38:41.201Z,81.07
2022-08-28T01:41:08.353Z,74.03
2022-08-28T01:43:35.527Z,86.57
2022-08-28T01:46:04.701Z,92.40
2022-08-28T01:48:35.958Z,100.67
2022-08-28T01:51:04.039Z,89.00
2022-08-28T01:53:32.972Z,101.63
2022-08-28T01:56:02.795Z,78.20
2022-08-28T01:58:36.042Z,97.57
2022-08-28T02:01:25.600Z,98.88
2022-08-28T02:03:55.577Z,80.70
2022-08-28T02:06:22.504Z,96.00
2022-08-28T02:08:54.551Z,101.77
2022-08-28T02:11:24.421Z,91.32
2022-08-28T02:13:52.875Z,98.03
2022-08-28T02:16:21.765Z,92.38
2022-08-28T02:18:48.955Z,89.90
2022-08-28T02:21:15.839Z,103.38
2022-08-28T02:23:43.854Z,96.22
2022-08-28T02:26:12.320Z,78.00
2022-08-28T02:28:40.153Z,74.30
2022-08-28T02:31:10.396Z,110.82
2022-08-28T02:33:39.606Z,97.25
2022-08-28T02:36:08.458Z,102.17
2022-08-28T02:38:36.455Z,121.35
2022-08-28T02:41:04.500Z,126.35
2022-08-28T02:43:31.927Z,121.73
2022-08-28T02:45:58.877Z,136.15
2022-08-28T02:48:33.702Z,136.65
2022-08-28T02:51:02.904Z,138.10
2022-08-28T02:53:30.361Z,155.70
2022-08-28T02:55:58.524Z,139.20
2022-08-28T02:58:27.223Z,154.40
2022-08-28T03:00:54.635Z,157.77
2022-08-28T03:03:21.495Z,155.20
2022-08-28T03:05:48.295Z,161.73
2022-08-28T03:08:15.104Z,171.80
2022-08-28T03:10:42.015Z,168.10
2022-08-28T03:13:08.899Z,162.25
2022-08-28T03:15:35.736Z,164.57
2022-08-28T03:18:02.603Z,178.68
2022-08-28T03:20:34.874Z,181.65
2022-08-28T03:23:20.415Z,172.07
2022-08-28T03:25:47.296Z,186.82
2022-08-28T03:28:14.130Z,188.32
2022-08-28T03:30:41.307Z,196.10
2022-08-28T03:33:08.131Z,196.35
2022-08-28T03:35:35.240Z,198.68
2022-08-28T03:38:01.996Z,197.90
2022-08-28T03:40:29.316Z,188.77
2022-08-28T03:42:56.303Z,199.23
2022-08-28T03:45:23.524Z,192.32
2022-08-28T03:47:51.019Z,175.98
2022-08-28T03:50:18.721Z,192.20
2022-08-28T03:52:47.413Z,190.63
2022-08-28T03:55:14.726Z,179.70
2022-08-28T03:57:41.653Z,201.65
2022-08-28T04:00:12.075Z,197.85
2022-08-28T04:02:40.334Z,206.40
2022-08-28T04:05:09.443Z,201.15
2022-08-28T04:07:37.231Z,204.27
2022-08-28T04:10:05.027Z,206.20
2022-08-28T04:12:35.223Z,203.43
2022-08-28T04:15:02.962Z,209.13
2022-08-28T04:17:30.110Z,221.50
2022-08-28T04:19:57.051Z,217.60
2022-08-28T04:22:23.956Z,201.52
2022-08-28T04:24:50.740Z,215.10
2022-08-28T04:27:17.656Z,208.43
2022-08-28T04:29:44.415Z,226.25
2022-08-28T04:32:11.556Z,196.10
2022-08-28T04:34:39.135Z,209.67
2022-08-28T04:37:06.479Z,180.98
2022-08-28T04:39:34.046Z,186.40
2022-08-28T04:42:00.970Z,195.50
2022-08-28T04:44:27.859Z,173.00
2022-08-28T04:46:54.699Z,169.18
2022-08-28T04:49:23.057Z,184.67
2022-08-28T04:51:52.774Z,191.63
2022-08-28T04:54:20.131Z,175.88
2022-08-28T04:56:46.946Z,195.33
2022-08-28T04:59:13.903Z,193.48
2022-08-28T05:01:42.499Z,185.25
2022-08-28T05:04:11.513Z,188.23
2022-08-28T05:06:45.997Z,200.77
2022-08-28T05:09:15.443Z,183.82
2022-08-28T05:11:42.788Z,208.13
2022-08-28T05:14:15.400Z,198.45
2022-08-28T05:16:46.033Z,226.65
2022-08-28T05:19:14.279Z,201.95
2022-08-28T05:21:41.245Z,208.10
2022-08-28T05:24:08.756Z,218.63
2022-08-28T05:26:40.003Z,182.23
2022-08-28T05:29:07.587Z,196.82
2022-08-28T05:31:35.061Z,212.82
2022-08-28T05:34:02.420Z,205.73
2022-08-28T05:36:33.230Z,220.63
2022-08-28T05:39:01.972Z,221.50
2022-08-28T05:41:30.709Z,222.03
2022-08-28T05:44:04.699Z,233.02
2022-08-28T05:46:32.022Z,216.55
2022-08-28T05:49:00.380Z,208.63
2022-08-28T05:51:28.415Z,233.23
2022-08-28T05:53:57.417Z,222.77
2022-08-28T05:56:29.732Z,224.60
2022-08-28T05:58:59.001Z,235.10
2022-08-28T06:01:29.155Z,250.43
2022-08-28T06:04:02.247Z,253.17
2022-08-28T06:06:34.105Z,220.77
2022-08-28T06:09:04.247Z,250.77
2022-08-28T06:11:31.776Z,229.07
2022-08-28T06:14:02.681Z,241.87
2022-08-28T06:16:31.754Z,241.65
2022-08-28T06:18:59.208Z,246.70
2022-08-28T06:21:26.236Z,261.47
2022-08-28T06:23:53.219Z,250.82
2022-08-28T06:26:20.390Z,260.58
2022-08-28T06:28:47.250Z,244.43
2022-08-28T06:31:24.390Z,263.23
2022-08-28T06:33:57.188Z,267.83
2022-08-28T06:36:27.441Z,264.25
2022-08-28T06:38:55.513Z,264.60
2022-08-28T06:41:22.264Z,239.20
2022-08-28T06:43:49.150Z,260.95
2022-08-28T06:46:18.507Z,259.15
2022-08-28T06:48:45.363Z,257.83
2022-08-28T06:51:13.358Z,249.90
2022-08-28T06:53:42.003Z,258.52
2022-08-28T06:56:26.500Z,259.15
2022-08-28T06:58:56.692Z,251.57
2022-08-28T07:01:29.041Z,248.43
2022-08-28T07:03:59.505Z,245.35
2022-08-28T07:06:27.250Z,251.25
2022-08-28T07:08:54.194Z,261.52
2022-08-28T07:11:26.510Z,269.40
2022-08-28T07:13:55.147Z,253.75
2022-08-28T07:16:25.477Z,260.88
2022-08-28T07:18:52.363Z,265.45
2022-08-28T07:21:20.578Z,221.75
2022-08-28T07:23:48.270Z,242.80
2022-08-28T07:26:23.214Z,262.58
2022-08-28T07:28:51.661Z,264.15
2022-08-28T07:31:22.014Z,262.48
2022-08-28T07:33:53.513Z,266.80
2022-08-28T07:36:29.636Z,271.35
2022-08-28T07:38:59.205Z,271.73
2022-08-28T07:41:29.768Z,266.13
2022-08-28T07:44:15.214Z,266.13
2022-08-28T07:46:42.228Z,273.25
2022-08-28T07:49:09.867Z,282.23
2022-08-28T07:51:37.417Z,277.90
2022-08-28T07:54:04.675Z,258.23
2022-08-28T07:56:31.688Z,254.88
2022-08-28T07:58:59.683Z,230.18
2022-08-28T08:01:28.714Z,243.77
2022-08-28T08:04:01.196Z,209.23
2022-08-28T08:06:33.901Z,230.98
2022-08-28T08:09:02.926Z,236.32
2022-08-28T08:11:32.481Z,219.87
2022-08-28T08:14:05.818Z,221.40
2022-08-28T08:16:38.935Z,252.85
2022-08-28T08:19:09.622Z,283.05
2022-08-28T08:21:37.122Z,270.75
2022-08-28T08:24:04.175Z,279.43
2022-08-28T08:26:31.084Z,283.88
2022-08-28T08:28:59.490Z,283.23
2022-08-28T08:31:29.758Z,304.15
2022-08-28T08:34:02.389Z,277.15
2022-08-28T08:36:31.162Z,301.88
2022-08-28T08:39:00.326Z,283.73
2022-08-28T08:41:31.802Z,290.75
2022-08-28T08:44:33.294Z,303.30
2022-08-28T08:47:19.424Z,265.17
2022-08-28T08:49:57.067Z,289.17
2022-08-28T08:52:41.955Z,258.53
2022-08-28T08:55:25.067Z,281.98
2022-08-28T08:58:00.911Z,272.80
2022-08-28T09:00:28.932Z,268.02
2022-08-28T09:03:06.466Z,278.55
2022-08-28T09:05:47.867Z,286.40
2022-08-28T09:08:33.888Z,280.20
2022-08-28T09:11:12.790Z,293.90
2022-08-28T09:14:02.722Z,290.00
2022-08-28T09:16:37.811Z,291.02
2022-08-28T09:19:06.138Z,282.42
2022-08-28T09:21:38.688Z,278.90
2022-08-28T09:24:11.786Z,263.50
2022-08-28T09:26:40.425Z,277.60
2022-08-28T09:29:16.474Z,266.08
2022-08-28T09:31:44.374Z,238.80
2022-08-28T09:34:36.777Z,225.88
2022-08-28T09:37:08.359Z,256.33
2022-08-28T09:39:38.600Z,258.75
2022-08-28T09:42:33.007Z,232.05
2022-08-28T09:45:20.880Z,273.02
2022-08-28T09:47:58.207Z,286.33
2022-08-28T09:50:54.451Z,286.95
2022-08-28T09:53:22.350Z,272.95
2022-08-28T09:56:18.473Z,249.88
2022-08-28T09:58:59.691Z,234.82
2022-08-28T10:01:58.947Z,246.95
2022-08-28T10:05:05.350Z,286.47
2022-08-28T10:08:01.210Z,290.48
2022-08-28T10:10:38.546Z,278.73
2022-08-28T10:13:14.163Z,266.25
2022-08-28T10:16:09.833Z,237.52
2022-08-28T10:18:39.946Z,221.90
2022-08-28T10:21:36.075Z,220.82
2022-08-28T10:24:18.480Z,251.45
2022-08-28T10:27:16.558Z,258.75
2022-08-28T10:30:07.926Z,263.27
2022-08-28T10:33:07.925Z,243.00
2022-08-28T10:36:01.709Z,254.73
2022-08-28T10:38:53.006Z,264.95
2022-08-28T10:41:25.285Z,247.60
2022-08-28T10:44:00.642Z,254.85
2022-08-28T10:46:30.670Z,224.85
2022-08-28T10:49:08.419Z,214.00
2022-08-28T10:51:45.717Z,226.88
2022-08-28T10:54:40.975Z,244.40
2022-08-28T10:57:39.646Z,236.10
2022-08-28T11:00:14.232Z,235.90
2022-08-28T11:02:45.928Z,232.23
2022-08-28T11:05:13.072Z,257.88
2022-08-28T11:07:53.763Z,268.77
2022-08-28T11:10:45.107Z,253.00
2022-08-28T11:13:12.916Z,245.35
2022-08-28T11:15:45.837Z,253.77
2022-08-28T11:18:18.874Z,255.20
2022-08-28T11:21:09.876Z,260.23
2022-08-28T11:23:59.596Z,242.02
2022-08-28T11:26:58.392Z,252.75
2022-08-28T11:29:56.662Z,243.93
2022-08-28T11:32:32.778Z,218.43
2022-08-28T11:35:37.670Z,229.63
2022-08-28T11:38:05.485Z,243.00
2022-08-28T11:40:32.396Z,219.05
2022-08-28T11:43:20.674Z,213.00
2022-08-28T11:46:10.489Z,221.35
2022-08-28T11:48:39.330Z,198.55
2022-08-28T11:51:18.286Z,223.77
2022-08-28T11:54:09.286Z,220.57
2022-08-28T11:56:48.141Z,228.45
2022-08-28T11:59:35.461Z,228.10
2022-08-28T12:02:40.241Z,242.18
2022-08-28T12:05:09.454Z,221.60
2022-08-28T12:07:42.541Z,252.05
2022-08-28T12:10:24.680Z,253.90
2022-08-28T12:13:29.706Z,271.52
2022-08-28T12:16:07.504Z,262.08
2022-08-28T12:18:40.404Z,271.53
2022-08-28T12:21:14.522Z,270.25
2022-08-28T12:24:09.926Z,255.10
2022-08-28T12:26:47.075Z,257.80
2022-08-28T12:29:33.419Z,252.23
2022-08-28T12:32:18.902Z,252.48
2022-08-28T12:34:50.663Z,256.35
2022-08-28T12:37:50.806Z,265.63
2022-08-28T12:40:37.645Z,286.63
2022-08-28T12:43:10.459Z,270.48
2022-08-28T12:45:49.512Z,263.58
2022-08-28T12:48:34.253Z,252.52
2022-08-28T12:51:04.156Z,271.13
2022-08-28T12:53:45.351Z,259.73
2022-08-28T12:56:14.553Z,259.98
2022-08-28T12:58:42.607Z,249.32
2022-08-28T13:01:21.552Z,259.27
2022-08-28T13:03:56.762Z,246.37
2022-08-28T13:06:32.724Z,257.38
2022-08-28T13:09:27.247Z,262.48
2022-08-28T13:11:54.407Z,266.48
2022-08-28T13:14:43.060Z,229.37
2022-08-28T13:17:11.623Z,220.93
2022-08-28T13:19:39.034Z,256.93
2022-08-28T13:22:09.213Z,252.13
2022-08-28T13:24:35.954Z,271.77
2022-08-28T13:27:16.339Z,257.58
2022-08-28T13:30:02.392Z,256.35
2022-08-28T13:32:34.931Z,258.08
2022-08-28T13:35:28.307Z,264.88
2022-08-28T13:37:57.969Z,257.87
2022-08-28T13:40:58.076Z,239.98
2022-08-28T13:43:28.478Z,246.57
2022-08-28T13:45:55.451Z,267.58
2022-08-28T13:48:25.727Z,239.07
2022-08-28T13:51:05.128Z,246.85
2022-08-28T13:53:37.192Z,238.10
2022-08-28T13:56:04.958Z,276.20
2022-08-28T13:58:32.147Z,244.70
2022-08-28T14:00:59.531Z,224.18
2022-08-28T14:03:35.847Z,242.23
2022-08-28T14:06:09.079Z,246.05
2022-08-28T14:08:35.847Z,256.77
2022-08-28T14:11:04.259Z,248.98
2022-08-28T14:13:31.346Z,260.85
2022-08-28T14:15:58.507Z,243.55
2022-08-28T14:18:26.144Z,242.40
2022-08-28T14:20:52.980Z,222.52
2022-08-28T14:23:20.035Z,253.27
2022-08-28T14:25:47.556Z,243.95
2022-08-28T14:28:14.803Z,240.43
2022-08-28T14:30:46.682Z,228.32
2022-08-28T14:33:16.723Z,252.65
2022-08-28T14:35:43.627Z,235.40
2022-08-28T14:38:11.282Z,251.70
2022-08-28T14:40:40.535Z,258.65
2022-08-28T14:43:09.934Z,254.73
2022-08-28T14:45:48.126Z,234.80
2022-08-28T14:48:17.121Z,247.40
2022-08-28T14:50:46.802Z,249.20
2022-08-28T14:53:15.103Z,263.27
2022-08-28T14:55:44.884Z,265.75
2022-08-28T14:58:12.712Z,257.63
2022-08-28T15:00:42.819Z,255.83
2022-08-28T15:03:10.081Z,274.70
2022-08-28T15:05:36.849Z,245.07
2022-08-28T15:08:10.577Z,239.43
2022-08-28T15:10:38.844Z,251.20
2022-08-28T15:13:08.988Z,265.83
2022-08-28T15:15:41.185Z,246.98
2022-08-28T15:18:10.136Z,258.40
2022-08-28T15:20:42.803Z,259.40
2022-08-28T15:23:10.054Z,279.30
2022-08-28T15:25:37.814Z,251.73
2022-08-28T15:28:05.115Z,242.35
2022-08-28T15:30:32.295Z,247.25
2022-08-28T15:32:59.143Z,237.38
2022-08-28T15:35:25.959Z,244.05
2022-08-28T15:37:53.532Z,235.95
2022-08-28T15:40:39.825Z,245.32
2022-08-28T15:43:06.778Z,242.95
2022-08-28T15:45:37.822Z,236.25
2022-08-28T15:48:05.330Z,247.73
2022-08-28T15:50:32.208Z,239.90
2022-08-28T15:52:59.336Z,232.70
2022-08-28T15:55:27.261Z,252.33
2022-08-28T15:57:55.018Z,237.98
2022-08-28T16:00:22.759Z,228.32
2022-08-28T16:02:49.860Z,221.65
2022-08-28T16:05:17.290Z,232.00
2022-08-28T16:07:44.646Z,251.65
2022-08-28T16:10:13.409Z,228.68
2022-08-28T16:12:40.942Z,242.10
2022-08-28T16:15:08.773Z,241.52
2022-08-28T16:17:35.848Z,236.80
2022-08-28T16:20:06.352Z,254.30
2022-08-28T16:22:39.063Z,257.73
2022-08-28T16:25:06.840Z,246.07
2022-08-28T16:27:34.169Z,241.70
2022-08-28T16:30:01.059Z,244.03
2022-08-28T16:32:27.873Z,258.00
2022-08-28T16:34:54.600Z,242.23
2022-08-28T16:37:21.856Z,239.73
2022-08-28T16:39:54.569Z,259.95
2022-08-28T16:42:22.907Z,240.57
2022-08-28T16:44:49.826Z,251.45
2022-08-28T16:47:16.603Z,243.52
2022-08-28T16:49:43.472Z,238.38
2022-08-28T16:52:10.320Z,240.30
2022-08-28T16:54:37.242Z,239.73
2022-08-28T16:57:12.088Z,239.27
2022-08-28T16:59:38.954Z,225.63
2022-08-28T17:02:06.041Z,238.68
2022-08-28T17:04:33.491Z,244.63
2022-08-28T17:07:00.189Z,240.18
2022-08-28T17:09:27.081Z,229.93
2022-08-28T17:11:54.131Z,240.90
2022-08-28T17:14:22.007Z,253.70
2022-08-28T17:16:49.407Z,243.75
2022-08-28T17:19:16.767Z,240.95
2022-08-28T17:22:02.576Z,254.90
2022-08-28T17:24:30.939Z,236.57
2022-08-28T17:27:00.883Z,243.87
2022-08-28T17:29:30.078Z,246.23
2022-08-28T17:31:56.927Z,252.57
2022-08-28T17:34:28.098Z,214.52
2022-08-28T17:36:57.011Z,195.88
2022-08-28T17:39:25.145Z,201.60
2022-08-28T17:41:52.046Z,213.45
2022-08-28T17:44:18.909Z,217.75
2022-08-28T17:46:45.982Z,223.52
2022-08-28T17:49:12.897Z,183.68
2022-08-28T17:51:43.697Z,209.88
2022-08-28T17:54:18.215Z,238.05
2022-08-28T17:56:45.894Z,227.40
2022-08-28T17:59:13.732Z,219.75
2022-08-28T18:01:42.187Z,257.85
2022-08-28T18:04:09.281Z,249.70
2022-08-28T18:06:36.491Z,211.40
2022-08-28T18:09:05.093Z,233.50
2022-08-28T18:11:31.954Z,219.93
2022-08-28T18:13:59.729Z,230.07
2022-08-28T18:16:31.080Z,224.68
2022-08-28T18:19:00.055Z,256.83
2022-08-28T18:21:27.726Z,250.30
2022-08-28T18:23:54.610Z,223.73
2022-08-28T18:26:21.389Z,280.67
2022-08-28T18:28:49.024Z,268.70
2022-08-28T18:31:16.144Z,243.27
2022-08-28T18:33:42.990Z,248.43
2022-08-28T18:36:11.079Z,258.20
2022-08-28T18:38:38.315Z,252.15
2022-08-28T18:41:06.359Z,233.63
2022-08-28T18:43:33.310Z,253.98
2022-08-28T18:46:01.986Z,254.93
2022-08-28T18:48:29.039Z,242.80
2022-08-28T18:50:55.820Z,251.63
2022-08-28T18:53:23.858Z,241.18
2022-08-28T18:55:53.766Z,258.30
2022-08-28T18:58:23.116Z,243.80
2022-08-28T19:00:50.153Z,234.90
2022-08-28T19:03:17.482Z,236.75
2022-08-28T19:05:44.822Z,225.82
2022-08-28T19:08:12.451Z,233.13
2022-08-28T19:10:40.335Z,246.85
2022-08-28T19:13:08.161Z,224.07
2022-08-28T19:15:36.216Z,219.75
2022-08-28T19:18:05.122Z,232.40
2022-08-28T19:20:32.230Z,211.27
2022-08-28T19:22:59.535Z,233.60
2022-08-28T19:25:30.407Z,216.23
2022-08-28T19:27:59.651Z,235.07
2022-08-28T19:30:32.833Z,216.67
2022-08-28T19:33:01.018Z,216.02
2022-08-28T19:35:28.163Z,203.53
2022-08-28T19:37:55.573Z,213.82
2022-08-28T19:40:23.155Z,234.13
2022-08-28T19:42:51.226Z,212.25
2022-08-28T19:45:19.117Z,243.18
2022-08-28T19:47:47.063Z,213.70
2022-08-28T19:50:14.828Z,230.98
2022-08-28T19:52:43.214Z,210.25
2022-08-28T19:55:22.079Z,221.02
2022-08-28T19:57:49.472Z,215.30
2022-08-28T20:00:22.994Z,238.38
2022-08-28T20:02:52.164Z,230.63
2022-08-28T20:05:20.732Z,213.40
2022-08-28T20:07:48.561Z,221.05
2022-08-28T20:10:16.437Z,213.37
2022-08-28T20:12:48.780Z,254.07
2022-08-28T20:15:17.397Z,252.18
2022-08-28T20:17:49.876Z,241.57
2022-08-28T20:20:24.561Z,204.85
2022-08-28T20:22:54.901Z,231.02
2022-08-28T20:25:23.576Z,232.10
2022-08-28T20:27:50.787Z,245.88
2022-08-28T20:30:18.204Z,224.55
2022-08-28T20:32:45.107Z,233.20
2022-08-28T20:35:13.405Z,239.88
2022-08-28T20:37:44.676Z,238.13
2022-08-28T20:40:17.080Z,238.45
2022-08-28T20:42:44.675Z,226.60
2022-08-28T20:45:13.292Z,219.80
2022-08-28T20:47:40.166Z,236.15
2022-08-28T20:50:07.535Z,223.65
2022-08-28T20:52:34.678Z,248.75
2022-08-28T20:55:01.879Z,251.88
2022-08-28T20:57:30.671Z,206.13
2022-08-28T21:00:02.222Z,230.77
2022-08-28T21:02:32.352Z,242.88
2022-08-28T21:05:00.855Z,236.73
2022-08-28T21:07:28.162Z,243.50
2022-08-28T21:10:06.340Z,241.90
2022-08-28T21:12:36.291Z,250.77
2022-08-28T21:15:05.292Z,259.98
2022-08-28T21:17:32.616Z,259.87
2022-08-28T21:20:02.795Z,245.63
2022-08-28T21:22:31.551Z,246.93
2022-08-28T21:24:58.699Z,253.75
2022-08-28T21:27:25.535Z,268.43
2022-08-28T21:29:56.305Z,255.05
2022-08-28T21:32:23.569Z,251.25
2022-08-28T21:34:50.397Z,251.27
2022-08-28T21:37:17.691Z,269.55
2022-08-28T21:39:44.551Z,279.60
2022-08-28T21:42:11.899Z,278.38
2022-08-28T21:44:39.328Z,317.87
2022-08-28T21:47:07.324Z,292.83
2022-08-28T21:49:35.327Z,298.85
2022-08-28T21:52:05.876Z,309.08
2022-08-28T21:54:32.701Z,311.08
2022-08-28T21:57:00.129Z,305.70
2022-08-28T21:59:30.303Z,323.30
2022-08-28T22:02:05.769Z,296.55
2022-08-28T22:04:35.285Z,312.53
2022-08-28T22:07:02.192Z,277.52
2022-08-28T22:09:29.104Z,314.13
2022-08-28T22:11:55.839Z,316.17
2022-08-28T22:14:25.036Z,258.25
2022-08-28T22:16:52.387Z,306.45
2022-08-28T22:19:19.568Z,300.67
2022-08-28T22:22:04.920Z,313.05
2022-08-28T22:24:34.218Z,306.48
2022-08-28T22:27:01.112Z,297.03
2022-08-28T22:29:36.302Z,314.23
2022-08-28T22:32:05.363Z,308.63
2022-08-28T22:34:38.670Z,316.73
2022-08-28T22:37:06.090Z,288.93
2022-08-28T22:39:33.076Z,311.63
2022-08-28T22:42:00.134Z,320.15
2022-08-28T22:44:27.059Z,306.45
2022-08-28T22:46:54.236Z,334.60
2022-08-28T22:49:21.558Z,328.23
2022-08-28T22:51:49.259Z,249.73
2022-08-28T22:54:17.330Z,278.90
2022-08-28T22:56:44.494Z,317.13
2022-08-28T22:59:12.867Z,335.33
2022-08-28T23:01:42.381Z,320.73
2022-08-28T23:04:10.321Z,330.23
2022-08-28T23:06:40.884Z,352.20
2022-08-28T23:09:08.373Z,320.25
2022-08-28T23:11:36.393Z,330.60
2022-08-28T23:14:04.795Z,352.00
2022-08-28T23:16:33.479Z,326.23
2022-08-28T23:19:13.162Z,274.40
2022-08-28T23:21:43.982Z,332.50
2022-08-28T23:24:16.022Z,325.08
2022-08-28T23:26:44.553Z,343.73
2022-08-28T23:29:12.619Z,335.98
2022-08-28T23:31:39.585Z,322.27
2022-08-28T23:34:06.894Z,326.63
2022-08-28T23:36:35.674Z,320.35
2022-08-28T23:39:03.252Z,312.70
2022-08-28T23:41:30.979Z,315.83
2022-08-28T23:43:58.387Z,339.90
2022-08-28T23:46:25.331Z,272.02
2022-08-28T23:48:53.025Z,344.23
2022-08-28T23:51:21.542Z,316.23
2022-08-28T23:53:49.211Z,333.40
2022-08-28T23:56:17.193Z,345.50
2022-08-28T23:58:45.551Z,309.05
